sensor_id;sensor_type;location;lat;lon;timestamp;temperature;humidity
12166;DHT22;6146;48.128;11.476;2022-10-17T00:00:19;13.20;99.90
12166;DHT22;6146;48.128;11.476;2022-10-17T00:02:45;13.00;99.90
12166;DHT22;6146;48.128;11.476;2022-10-17T00:05:10;12.90;99.90
12166;DHT22;6146;48.128;11.476;2022-10-17T00:07:37;12.90;99.90
12166;DHT22;6146;48.128;11.476;2022-10-17T00:10:03;12.80;99.90
12166;DHT22;6146;48.128;11.476;2022-10-17T00:12:29;12.70;99.90
12166;DHT22;6146;48.128;11.476;2022-10-17T00:14:55;12.60;99.90
12166;DHT22;6146;48.128;11.476;2022-10-17T00:17:20;12.60;99.90
12166;DHT22;6146;48.128;11.476;2022-10-17T00:19:46;12.50;99.90
12166;DHT22;6146;48.128;11.476;2022-10-17T00:22:12;12.50;99.90
12166;DHT22;6146;48.128;11.476;2022-10-17T00:24:37;12.50;99.90
12166;DHT22;6146;48.128;11.476;2022-10-17T00:27:03;12.40;99.90
12166;DHT22;6146;48.128;11.476;2022-10-17T00:29:29;12.40;99.90
12166;DHT22;6146;48.128;11.476;2022-10-17T00:31:55;12.40;99.90
12166;DHT22;6146;48.128;11.476;2022-10-17T00:34:22;12.30;99.90
12166;DHT22;6146;48.128;11.476;2022-10-17T00:36:47;12.30;99.90
12166;DHT22;6146;48.128;11.476;2022-10-17T00:39:13;12.20;99.90
12166;DHT22;6146;48.128;11.476;2022-10-17T00:41:39;12.20;99.90
12166;DHT22;6146;48.128;11.476;2022-10-17T00:44:53;12.10;99.90
12166;DHT22;6146;48.128;11.476;2022-10-17T00:46:52;12.10;99.90
12166;DHT22;6146;48.128;11.476;2022-10-17T00:49:18;12.00;99.90
12166;DHT22;6146;48.128;11.476;2022-10-17T00:51:53;11.90;99.90
12166;DHT22;6146;48.128;11.476;2022-10-17T00:54:22;11.90;99.90
12166;DHT22;6146;48.128;11.476;2022-10-17T00:56:49;11.90;99.90
12166;DHT22;6146;48.128;11.476;2022-10-17T00:59:17;11.80;99.90
12166;DHT22;6146;48.128;11.476;2022-10-17T01:01:50;11.80;99.90
12166;DHT22;6146;48.128;11.476;2022-10-17T01:04:18;11.80;99.90
12166;DHT22;6146;48.128;11.476;2022-10-17T01:06:43;11.70;99.90
12166;DHT22;6146;48.128;11.476;2022-10-17T01:09:09;11.60;99.90
12166;DHT22;6146;48.128;11.476;2022-10-17T01:11:59;11.60;99.90
12166;DHT22;6146;48.128;11.476;2022-10-17T01:20:04;11.60;99.90
12166;DHT22;6146;48.128;11.476;2022-10-17T01:22:46;11.50;99.90
12166;DHT22;6146;48.128;11.476;2022-10-17T01:28:17;11.50;99.90
12166;DHT22;6146;48.128;11.476;2022-10-17T01:31:08;11.40;99.90
12166;DHT22;6146;48.128;11.476;2022-10-17T01:45:00;11.30;99.90
12166;DHT22;6146;48.128;11.476;2022-10-17T01:47:30;11.40;99.90
12166;DHT22;6146;48.128;11.476;2022-10-17T01:50:01;11.30;99.90
12166;DHT22;6146;48.128;11.476;2022-10-17T01:52:36;11.30;99.90
12166;DHT22;6146;48.128;11.476;2022-10-17T01:55:13;11.20;99.90
12166;DHT22;6146;48.128;11.476;2022-10-17T01:57:45;11.20;99.90
12166;DHT22;6146;48.128;11.476;2022-10-17T02:00:16;11.20;99.90
12166;DHT22;6146;48.128;11.476;2022-10-17T02:02:43;11.20;99.90
12166;DHT22;6146;48.128;11.476;2022-10-17T02:05:09;11.20;99.90
12166;DHT22;6146;48.128;11.476;2022-10-17T02:07:35;11.20;99.90
12166;DHT22;6146;48.128;11.476;2022-10-17T02:10:03;11.20;99.90
12166;DHT22;6146;48.128;11.476;2022-10-17T02:12:44;11.10;99.90
12166;DHT22;6146;48.128;11.476;2022-10-17T02:18:03;11.10;99.90
12166;DHT22;6146;48.128;11.476;2022-10-17T02:20:39;11.10;99.90
12166;DHT22;6146;48.128;11.476;2022-10-17T02:23:12;11.00;99.90
12166;DHT22;6146;48.128;11.476;2022-10-17T02:26:03;11.00;99.90
12166;DHT22;6146;48.128;11.476;2022-10-17T02:28:46;11.00;99.90
12166;DHT22;6146;48.128;11.476;2022-10-17T02:31:25;10.90;99.90
12166;DHT22;6146;48.128;11.476;2022-10-17T02:33:57;10.80;99.90
12166;DHT22;6146;48.128;11.476;2022-10-17T02:36:44;10.80;99.90
12166;DHT22;6146;48.128;11.476;2022-10-17T02:39:11;10.80;99.90
12166;DHT22;6146;48.128;11.476;2022-10-17T02:41:38;10.80;99.90
12166;DHT22;6146;48.128;11.476;2022-10-17T02:44:05;10.90;99.90
12166;DHT22;6146;48.128;11.476;2022-10-17T02:46:32;10.90;99.90
12166;DHT22;6146;48.128;11.476;2022-10-17T02:49:08;11.00;99.90
12166;DHT22;6146;48.128;11.476;2022-10-17T02:52:07;11.00;99.90
12166;DHT22;6146;48.128;11.476;2022-10-17T02:54:54;11.00;99.90
12166;DHT22;6146;48.128;11.476;2022-10-17T02:59:54;11.10;99.90
12166;DHT22;6146;48.128;11.476;2022-10-17T03:02:22;11.20;99.90
12166;DHT22;6146;48.128;11.476;2022-10-17T03:04:48;11.20;99.90
12166;DHT22;6146;48.128;11.476;2022-10-17T03:07:14;11.20;99.90
12166;DHT22;6146;48.128;11.476;2022-10-17T03:09:40;11.20;99.90
12166;DHT22;6146;48.128;11.476;2022-10-17T03:12:05;11.10;99.90
12166;DHT22;6146;48.128;11.476;2022-10-17T03:14:31;11.10;99.90
12166;DHT22;6146;48.128;11.476;2022-10-17T03:16:56;11.10;99.90
12166;DHT22;6146;48.128;11.476;2022-10-17T03:19:22;11.00;99.90
12166;DHT22;6146;48.128;11.476;2022-10-17T03:21:47;10.90;99.90
12166;DHT22;6146;48.128;11.476;2022-10-17T03:24:13;10.90;99.90
12166;DHT22;6146;48.128;11.476;2022-10-17T03:26:39;10.80;99.90
12166;DHT22;6146;48.128;11.476;2022-10-17T03:29:04;10.80;99.90
12166;DHT22;6146;48.128;11.476;2022-10-17T03:31:30;10.80;99.90
12166;DHT22;6146;48.128;11.476;2022-10-17T03:33:55;10.90;99.90
12166;DHT22;6146;48.128;11.476;2022-10-17T03:36:21;10.90;99.90
12166;DHT22;6146;48.128;11.476;2022-10-17T03:38:47;10.80;99.90
12166;DHT22;6146;48.128;11.476;2022-10-17T03:41:12;10.80;99.90
12166;DHT22;6146;48.128;11.476;2022-10-17T03:43:38;10.70;99.90
12166;DHT22;6146;48.128;11.476;2022-10-17T03:46:04;10.70;99.90
12166;DHT22;6146;48.128;11.476;2022-10-17T03:48:30;10.60;99.90
12166;DHT22;6146;48.128;11.476;2022-10-17T03:51:00;10.50;99.90
12166;DHT22;6146;48.128;11.476;2022-10-17T03:53:27;10.40;99.90
12166;DHT22;6146;48.128;11.476;2022-10-17T03:55:52;10.40;99.90
12166;DHT22;6146;48.128;11.476;2022-10-17T03:58:18;10.30;99.90
12166;DHT22;6146;48.128;11.476;2022-10-17T04:00:44;10.20;99.90
12166;DHT22;6146;48.128;11.476;2022-10-17T04:03:09;10.30;99.90
12166;DHT22;6146;48.128;11.476;2022-10-17T04:05:35;10.20;99.90
12166;DHT22;6146;48.128;11.476;2022-10-17T04:08:00;10.20;99.90
12166;DHT22;6146;48.128;11.476;2022-10-17T04:10:26;10.20;99.90
12166;DHT22;6146;48.128;11.476;2022-10-17T04:12:51;10.20;99.90
12166;DHT22;6146;48.128;11.476;2022-10-17T04:15:17;10.10;99.90
12166;DHT22;6146;48.128;11.476;2022-10-17T04:17:42;10.10;99.90
12166;DHT22;6146;48.128;11.476;2022-10-17T04:20:08;10.10;99.90
12166;DHT22;6146;48.128;11.476;2022-10-17T04:22:34;10.20;99.90
12166;DHT22;6146;48.128;11.476;2022-10-17T04:24:59;10.20;99.90
12166;DHT22;6146;48.128;11.476;2022-10-17T04:27:25;10.20;99.90
12166;DHT22;6146;48.128;11.476;2022-10-17T04:29:50;10.30;99.90
12166;DHT22;6146;48.128;11.476;2022-10-17T04:32:16;10.30;99.90
12166;DHT22;6146;48.128;11.476;2022-10-17T04:34:42;10.30;99.90
12166;DHT22;6146;48.128;11.476;2022-10-17T04:37:07;10.30;99.90
12166;DHT22;6146;48.128;11.476;2022-10-17T04:39:33;10.30;99.90
12166;DHT22;6146;48.128;11.476;2022-10-17T04:41:58;10.30;99.90
12166;DHT22;6146;48.128;11.476;2022-10-17T04:44:24;10.30;99.90
12166;DHT22;6146;48.128;11.476;2022-10-17T04:46:49;10.30;99.90
12166;DHT22;6146;48.128;11.476;2022-10-17T04:49:15;10.30;99.90
12166;DHT22;6146;48.128;11.476;2022-10-17T04:51:41;10.30;99.90
12166;DHT22;6146;48.128;11.476;2022-10-17T04:54:06;10.30;99.90
12166;DHT22;6146;48.128;11.476;2022-10-17T04:56:32;10.20;99.90
12166;DHT22;6146;48.128;11.476;2022-10-17T04:58:58;10.20;99.90
12166;DHT22;6146;48.128;11.476;2022-10-17T05:01:25;10.30;99.90
12166;DHT22;6146;48.128;11.476;2022-10-17T05:03:51;10.30;99.90
12166;DHT22;6146;48.128;11.476;2022-10-17T05:06:22;10.30;99.90
12166;DHT22;6146;48.128;11.476;2022-10-17T05:08:48;10.20;99.90
12166;DHT22;6146;48.128;11.476;2022-10-17T05:11:24;10.20;99.90
12166;DHT22;6146;48.128;11.476;2022-10-17T05:13:52;10.10;99.90
12166;DHT22;6146;48.128;11.476;2022-10-17T05:16:18;10.10;99.90
12166;DHT22;6146;48.128;11.476;2022-10-17T05:18:47;10.00;99.90
12166;DHT22;6146;48.128;11.476;2022-10-17T05:21:13;10.00;99.90
12166;DHT22;6146;48.128;11.476;2022-10-17T05:23:38;10.00;99.90
12166;DHT22;6146;48.128;11.476;2022-10-17T05:26:04;9.90;99.90
12166;DHT22;6146;48.128;11.476;2022-10-17T05:28:29;9.90;99.90
12166;DHT22;6146;48.128;11.476;2022-10-17T05:30:55;9.80;99.90
12166;DHT22;6146;48.128;11.476;2022-10-17T05:33:21;9.80;99.90
12166;DHT22;6146;48.128;11.476;2022-10-17T05:35:47;9.80;99.90
12166;DHT22;6146;48.128;11.476;2022-10-17T05:38:13;9.80;99.90
12166;DHT22;6146;48.128;11.476;2022-10-17T05:40:38;9.80;99.90
12166;DHT22;6146;48.128;11.476;2022-10-17T05:43:04;9.80;99.90
12166;DHT22;6146;48.128;11.476;2022-10-17T05:45:29;9.90;99.90
12166;DHT22;6146;48.128;11.476;2022-10-17T05:47:55;9.90;99.90
12166;DHT22;6146;48.128;11.476;2022-10-17T05:50:21;9.90;99.90
12166;DHT22;6146;48.128;11.476;2022-10-17T05:52:52;10.00;99.90
12166;DHT22;6146;48.128;11.476;2022-10-17T05:55:18;10.00;99.90
12166;DHT22;6146;48.128;11.476;2022-10-17T05:57:43;10.00;99.90
12166;DHT22;6146;48.128;11.476;2022-10-17T06:00:09;10.10;99.90
12166;DHT22;6146;48.128;11.476;2022-10-17T06:02:35;10.10;99.90
12166;DHT22;6146;48.128;11.476;2022-10-17T06:05:01;10.20;99.90
12166;DHT22;6146;48.128;11.476;2022-10-17T06:07:26;10.20;99.90
12166;DHT22;6146;48.128;11.476;2022-10-17T06:09:52;10.20;99.90
12166;DHT22;6146;48.128;11.476;2022-10-17T06:12:17;10.30;99.90
12166;DHT22;6146;48.128;11.476;2022-10-17T06:14:43;10.30;99.90
12166;DHT22;6146;48.128;11.476;2022-10-17T06:17:08;10.40;99.90
12166;DHT22;6146;48.128;11.476;2022-10-17T06:19:34;10.50;99.90
12166;DHT22;6146;48.128;11.476;2022-10-17T06:21:59;10.60;99.90
12166;DHT22;6146;48.128;11.476;2022-10-17T06:24:25;10.60;99.90
12166;DHT22;6146;48.128;11.476;2022-10-17T06:26:51;10.80;99.90
12166;DHT22;6146;48.128;11.476;2022-10-17T06:29:16;10.90;99.90
12166;DHT22;6146;48.128;11.476;2022-10-17T06:31:42;11.10;99.90
12166;DHT22;6146;48.128;11.476;2022-10-17T06:34:07;11.50;99.90
12166;DHT22;6146;48.128;11.476;2022-10-17T06:36:33;12.20;99.90
12166;DHT22;6146;48.128;11.476;2022-10-17T06:38:59;13.30;99.90
12166;DHT22;6146;48.128;11.476;2022-10-17T06:41:25;14.30;99.90
12166;DHT22;6146;48.128;11.476;2022-10-17T06:43:50;15.60;99.90
12166;DHT22;6146;48.128;11.476;2022-10-17T06:46:17;17.10;99.90
12166;DHT22;6146;48.128;11.476;2022-10-17T06:48:43;18.90;99.90
12166;DHT22;6146;48.128;11.476;2022-10-17T06:51:10;20.20;99.90
12166;DHT22;6146;48.128;11.476;2022-10-17T06:53:37;21.50;99.90
12166;DHT22;6146;48.128;11.476;2022-10-17T06:56:04;22.50;99.90
12166;DHT22;6146;48.128;11.476;2022-10-17T06:58:32;23.30;99.80
12166;DHT22;6146;48.128;11.476;2022-10-17T07:01:09;24.50;97.00
12166;DHT22;6146;48.128;11.476;2022-10-17T07:03:35;25.90;93.30
12166;DHT22;6146;48.128;11.476;2022-10-17T07:06:01;27.00;87.80
12166;DHT22;6146;48.128;11.476;2022-10-17T07:08:27;27.80;81.80
12166;DHT22;6146;48.128;11.476;2022-10-17T07:10:53;28.70;77.40
12166;DHT22;6146;48.128;11.476;2022-10-17T07:13:18;29.50;71.60
12166;DHT22;6146;48.128;11.476;2022-10-17T07:15:44;30.00;67.70
12166;DHT22;6146;48.128;11.476;2022-10-17T07:18:10;29.90;64.00
12166;DHT22;6146;48.128;11.476;2022-10-17T07:20:36;29.60;61.50
12166;DHT22;6146;48.128;11.476;2022-10-17T07:23:02;29.30;61.30
12166;DHT22;6146;48.128;11.476;2022-10-17T07:25:28;29.40;61.00
12166;DHT22;6146;48.128;11.476;2022-10-17T07:27:54;29.30;59.20
12166;DHT22;6146;48.128;11.476;2022-10-17T07:30:20;29.40;59.60
12166;DHT22;6146;48.128;11.476;2022-10-17T07:32:45;29.90;57.80
12166;DHT22;6146;48.128;11.476;2022-10-17T07:35:11;30.40;58.40
12166;DHT22;6146;48.128;11.476;2022-10-17T07:37:37;31.00;56.00
12166;DHT22;6146;48.128;11.476;2022-10-17T07:40:04;31.60;54.60
12166;DHT22;6146;48.128;11.476;2022-10-17T07:42:31;32.00;53.20
12166;DHT22;6146;48.128;11.476;2022-10-17T07:44:57;32.30;52.50
12166;DHT22;6146;48.128;11.476;2022-10-17T07:47:22;32.30;51.60
12166;DHT22;6146;48.128;11.476;2022-10-17T07:49:48;32.30;52.60
12166;DHT22;6146;48.128;11.476;2022-10-17T07:52:14;33.00;51.30
12166;DHT22;6146;48.128;11.476;2022-10-17T07:54:40;33.30;50.70
12166;DHT22;6146;48.128;11.476;2022-10-17T07:57:06;33.70;50.50
12166;DHT22;6146;48.128;11.476;2022-10-17T07:59:33;33.60;49.70
12166;DHT22;6146;48.128;11.476;2022-10-17T08:01:59;33.50;49.30
12166;DHT22;6146;48.128;11.476;2022-10-17T08:04:25;33.30;49.30
12166;DHT22;6146;48.128;11.476;2022-10-17T08:06:51;33.30;47.30
12166;DHT22;6146;48.128;11.476;2022-10-17T08:09:18;33.50;48.20
12166;DHT22;6146;48.128;11.476;2022-10-17T08:11:44;34.00;46.50
12166;DHT22;6146;48.128;11.476;2022-10-17T08:14:11;33.90;46.70
12166;DHT22;6146;48.128;11.476;2022-10-17T08:16:37;33.20;47.30
12166;DHT22;6146;48.128;11.476;2022-10-17T08:19:03;33.40;47.70
12166;DHT22;6146;48.128;11.476;2022-10-17T08:21:29;33.70;47.00
12166;DHT22;6146;48.128;11.476;2022-10-17T08:23:55;33.30;47.80
12166;DHT22;6146;48.128;11.476;2022-10-17T08:26:20;33.20;46.60
12166;DHT22;6146;48.128;11.476;2022-10-17T08:28:47;33.00;47.20
12166;DHT22;6146;48.128;11.476;2022-10-17T08:31:15;33.20;46.60
12166;DHT22;6146;48.128;11.476;2022-10-17T08:33:43;33.00;45.90
12166;DHT22;6146;48.128;11.476;2022-10-17T08:36:12;32.70;47.90
12166;DHT22;6146;48.128;11.476;2022-10-17T08:38:38;33.50;47.30
12166;DHT22;6146;48.128;11.476;2022-10-17T08:46:40;34.60;45.10
12166;DHT22;6146;48.128;11.476;2022-10-17T08:49:12;34.80;43.90
12166;DHT22;6146;48.128;11.476;2022-10-17T08:51:48;34.40;44.70
12166;DHT22;6146;48.128;11.476;2022-10-17T08:54:21;34.30;43.60
12166;DHT22;6146;48.128;11.476;2022-10-17T08:56:50;34.30;43.70
12166;DHT22;6146;48.128;11.476;2022-10-17T08:59:28;34.60;44.20
12166;DHT22;6146;48.128;11.476;2022-10-17T09:18:24;35.10;40.20
12166;DHT22;6146;48.128;11.476;2022-10-17T09:20:55;35.20;41.40
12166;DHT22;6146;48.128;11.476;2022-10-17T09:23:31;35.20;40.30
12166;DHT22;6146;48.128;11.476;2022-10-17T09:26:00;35.30;40.40
12166;DHT22;6146;48.128;11.476;2022-10-17T09:28:36;34.80;41.80
12166;DHT22;6146;48.128;11.476;2022-10-17T09:31:13;34.80;41.80
12166;DHT22;6146;48.128;11.476;2022-10-17T09:33:46;35.50;41.80
12166;DHT22;6146;48.128;11.476;2022-10-17T09:36:22;35.40;39.90
12166;DHT22;6146;48.128;11.476;2022-10-17T09:38:51;35.10;41.40
12166;DHT22;6146;48.128;11.476;2022-10-17T09:41:35;35.10;41.60
12166;DHT22;6146;48.128;11.476;2022-10-17T09:46:39;35.30;40.90
12166;DHT22;6146;48.128;11.476;2022-10-17T09:49:16;35.40;40.10
12166;DHT22;6146;48.128;11.476;2022-10-17T09:51:43;34.70;41.50
12166;DHT22;6146;48.128;11.476;2022-10-17T09:54:21;35.10;40.90
12166;DHT22;6146;48.128;11.476;2022-10-17T09:57:20;35.30;40.90
12166;DHT22;6146;48.128;11.476;2022-10-17T10:02:24;35.60;40.50
12166;DHT22;6146;48.128;11.476;2022-10-17T10:05:04;34.80;41.20
12166;DHT22;6146;48.128;11.476;2022-10-17T10:07:33;35.10;40.80
12166;DHT22;6146;48.128;11.476;2022-10-17T10:09:59;35.60;41.60
12166;DHT22;6146;48.128;11.476;2022-10-17T10:12:36;35.50;39.90
12166;DHT22;6146;48.128;11.476;2022-10-17T10:15:37;35.20;40.40
12166;DHT22;6146;48.128;11.476;2022-10-17T10:21:10;36.10;40.30
12166;DHT22;6146;48.128;11.476;2022-10-17T10:23:37;35.60;38.80
12166;DHT22;6146;48.128;11.476;2022-10-17T10:26:19;36.20;38.70
12166;DHT22;6146;48.128;11.476;2022-10-17T10:28:54;37.50;37.50
12166;DHT22;6146;48.128;11.476;2022-10-17T10:33:59;38.70;34.90
12166;DHT22;6146;48.128;11.476;2022-10-17T10:36:40;39.10;34.80
12166;DHT22;6146;48.128;11.476;2022-10-17T10:39:19;39.80;33.80
12166;DHT22;6146;48.128;11.476;2022-10-17T10:41:48;40.40;32.90
12166;DHT22;6146;48.128;11.476;2022-10-17T10:44:22;39.70;33.30
12166;DHT22;6146;48.128;11.476;2022-10-17T10:47:26;39.10;33.60
12166;DHT22;6146;48.128;11.476;2022-10-17T10:50:05;39.30;33.10
12166;DHT22;6146;48.128;11.476;2022-10-17T10:52:37;39.40;33.30
12166;DHT22;6146;48.128;11.476;2022-10-17T10:57:44;39.10;33.50
12166;DHT22;6146;48.128;11.476;2022-10-17T11:00:21;37.80;33.90
12166;DHT22;6146;48.128;11.476;2022-10-17T11:02:56;37.40;34.90
12166;DHT22;6146;48.128;11.476;2022-10-17T11:07:59;37.30;35.30
12166;DHT22;6146;48.128;11.476;2022-10-17T11:11:16;37.90;34.00
12166;DHT22;6146;48.128;11.476;2022-10-17T11:13:20;39.10;32.80
12166;DHT22;6146;48.128;11.476;2022-10-17T11:16:03;40.40;30.90
12166;DHT22;6146;48.128;11.476;2022-10-17T11:18:52;40.40;30.90
12166;DHT22;6146;48.128;11.476;2022-10-17T11:21:42;41.20;30.80
12166;DHT22;6146;48.128;11.476;2022-10-17T11:24:24;41.20;29.70
12166;DHT22;6146;48.128;11.476;2022-10-17T11:27:04;40.20;29.90
12166;DHT22;6146;48.128;11.476;2022-10-17T11:29:32;40.00;31.10
12166;DHT22;6146;48.128;11.476;2022-10-17T11:32:06;40.60;29.80
12166;DHT22;6146;48.128;11.476;2022-10-17T11:34:39;40.50;30.60
12166;DHT22;6146;48.128;11.476;2022-10-17T11:37:19;39.40;30.80
12166;DHT22;6146;48.128;11.476;2022-10-17T11:43:03;41.10;29.40
12166;DHT22;6146;48.128;11.476;2022-10-17T11:45:08;41.60;28.90
12166;DHT22;6146;48.128;11.476;2022-10-17T11:47:43;41.80;28.50
12166;DHT22;6146;48.128;11.476;2022-10-17T11:50:29;42.40;28.10
12166;DHT22;6146;48.128;11.476;2022-10-17T11:53:10;42.90;27.60
12166;DHT22;6146;48.128;11.476;2022-10-17T11:55:37;42.00;27.70
12166;DHT22;6146;48.128;11.476;2022-10-17T12:03:55;40.70;28.60
12166;DHT22;6146;48.128;11.476;2022-10-17T12:09:34;40.70;28.10
12166;DHT22;6146;48.128;11.476;2022-10-17T12:12:03;39.70;28.50
12166;DHT22;6146;48.128;11.476;2022-10-17T12:14:41;40.00;28.60
12166;DHT22;6146;48.128;11.476;2022-10-17T12:17:28;41.10;28.70
12166;DHT22;6146;48.128;11.476;2022-10-17T12:20:35;40.70;29.10
12166;DHT22;6146;48.128;11.476;2022-10-17T12:23:18;41.30;28.40
12166;DHT22;6146;48.128;11.476;2022-10-17T12:25:49;41.30;27.30
12166;DHT22;6146;48.128;11.476;2022-10-17T12:30:58;41.20;28.00
12166;DHT22;6146;48.128;11.476;2022-10-17T12:38:44;40.10;27.20
12166;DHT22;6146;48.128;11.476;2022-10-17T12:41:09;39.70;28.50
12166;DHT22;6146;48.128;11.476;2022-10-17T12:43:52;40.10;28.80
12166;DHT22;6146;48.128;11.476;2022-10-17T12:57:52;39.70;26.40
12166;DHT22;6146;48.128;11.476;2022-10-17T13:02:49;39.50;26.70
12166;DHT22;6146;48.128;11.476;2022-10-17T13:05:28;39.00;26.40
12166;DHT22;6146;48.128;11.476;2022-10-17T13:07:55;38.10;26.60
12166;DHT22;6146;48.128;11.476;2022-10-17T13:10:27;38.30;27.10
12166;DHT22;6146;48.128;11.476;2022-10-17T13:13:19;38.50;27.30
12166;DHT22;6146;48.128;11.476;2022-10-17T13:15:48;39.20;27.30
12166;DHT22;6146;48.128;11.476;2022-10-17T13:18:27;39.30;27.10
12166;DHT22;6146;48.128;11.476;2022-10-17T13:21:05;38.80;27.20
12166;DHT22;6146;48.128;11.476;2022-10-17T13:23:35;38.30;28.50
12166;DHT22;6146;48.128;11.476;2022-10-17T13:26:15;37.30;29.20
12166;DHT22;6146;48.128;11.476;2022-10-17T13:28:42;36.20;30.20
12166;DHT22;6146;48.128;11.476;2022-10-17T13:31:26;34.30;33.10
12166;DHT22;6146;48.128;11.476;2022-10-17T13:33:56;32.70;37.20
12166;DHT22;6146;48.128;11.476;2022-10-17T13:36:22;31.40;38.10
12166;DHT22;6146;48.128;11.476;2022-10-17T13:38:48;30.70;40.60
12166;DHT22;6146;48.128;11.476;2022-10-17T13:41:15;30.00;40.10
12166;DHT22;6146;48.128;11.476;2022-10-17T13:43:42;29.40;42.00
12166;DHT22;6146;48.128;11.476;2022-10-17T13:46:16;29.00;44.40
12166;DHT22;6146;48.128;11.476;2022-10-17T13:48:44;28.50;44.60
12166;DHT22;6146;48.128;11.476;2022-10-17T13:51:11;28.30;45.70
12166;DHT22;6146;48.128;11.476;2022-10-17T13:53:38;28.00;45.80
12166;DHT22;6146;48.128;11.476;2022-10-17T13:58:48;27.60;46.60
12166;DHT22;6146;48.128;11.476;2022-10-17T14:01:14;27.40;47.20
12166;DHT22;6146;48.128;11.476;2022-10-17T14:03:44;27.30;48.00
12166;DHT22;6146;48.128;11.476;2022-10-17T14:08:37;27.00;47.80
12166;DHT22;6146;48.128;11.476;2022-10-17T14:11:13;26.80;49.30
12166;DHT22;6146;48.128;11.476;2022-10-17T14:13:40;26.60;49.60
12166;DHT22;6146;48.128;11.476;2022-10-17T14:16:06;26.40;50.50
12166;DHT22;6146;48.128;11.476;2022-10-17T14:18:34;26.30;51.70
12166;DHT22;6146;48.128;11.476;2022-10-17T14:21:01;26.20;51.30
12166;DHT22;6146;48.128;11.476;2022-10-17T14:23:29;26.20;51.00
12166;DHT22;6146;48.128;11.476;2022-10-17T14:26:16;26.10;53.50
12166;DHT22;6146;48.128;11.476;2022-10-17T14:28:45;26.00;53.10
12166;DHT22;6146;48.128;11.476;2022-10-17T14:33:46;25.60;53.10
12166;DHT22;6146;48.128;11.476;2022-10-17T14:36:12;25.50;54.30
12166;DHT22;6146;48.128;11.476;2022-10-17T14:38:44;25.20;53.60
12166;DHT22;6146;48.128;11.476;2022-10-17T14:41:22;25.20;54.40
12166;DHT22;6146;48.128;11.476;2022-10-17T14:44:13;25.20;53.90
12166;DHT22;6146;48.128;11.476;2022-10-17T14:46:43;25.20;53.90
12166;DHT22;6146;48.128;11.476;2022-10-17T14:49:20;25.00;54.50
12166;DHT22;6146;48.128;11.476;2022-10-17T14:54:46;24.70;55.40
12166;DHT22;6146;48.128;11.476;2022-10-17T14:57:24;24.70;55.20
12166;DHT22;6146;48.128;11.476;2022-10-17T14:59:51;24.60;55.40
12166;DHT22;6146;48.128;11.476;2022-10-17T15:02:17;24.40;55.10
12166;DHT22;6146;48.128;11.476;2022-10-17T15:04:43;24.30;56.00
12166;DHT22;6146;48.128;11.476;2022-10-17T15:07:13;24.20;56.10
12166;DHT22;6146;48.128;11.476;2022-10-17T15:09:40;24.10;56.80
12166;DHT22;6146;48.128;11.476;2022-10-17T15:12:10;24.10;58.00
12166;DHT22;6146;48.128;11.476;2022-10-17T15:14:37;24.10;58.30
12166;DHT22;6146;48.128;11.476;2022-10-17T15:17:09;24.00;59.30
12166;DHT22;6146;48.128;11.476;2022-10-17T15:19:36;23.80;60.30
12166;DHT22;6146;48.128;11.476;2022-10-17T15:22:02;23.70;61.10
12166;DHT22;6146;48.128;11.476;2022-10-17T15:24:27;23.50;62.00
12166;DHT22;6146;48.128;11.476;2022-10-17T15:26:53;23.40;61.90
12166;DHT22;6146;48.128;11.476;2022-10-17T15:29:19;23.20;62.50
12166;DHT22;6146;48.128;11.476;2022-10-17T15:31:44;23.00;62.70
12166;DHT22;6146;48.128;11.476;2022-10-17T15:34:10;22.80;63.30
12166;DHT22;6146;48.128;11.476;2022-10-17T15:36:40;22.70;63.60
12166;DHT22;6146;48.128;11.476;2022-10-17T15:39:07;22.50;64.20
12166;DHT22;6146;48.128;11.476;2022-10-17T15:41:33;22.30;65.20
12166;DHT22;6146;48.128;11.476;2022-10-17T15:43:59;22.10;64.80
12166;DHT22;6146;48.128;11.476;2022-10-17T15:46:28;21.90;65.80
12166;DHT22;6146;48.128;11.476;2022-10-17T15:48:55;21.80;67.10
12166;DHT22;6146;48.128;11.476;2022-10-17T15:51:22;21.60;68.10
12166;DHT22;6146;48.128;11.476;2022-10-17T15:53:48;21.50;68.90
12166;DHT22;6146;48.128;11.476;2022-10-17T15:56:37;21.40;70.40
12166;DHT22;6146;48.128;11.476;2022-10-17T15:59:15;21.20;71.70
12166;DHT22;6146;48.128;11.476;2022-10-17T16:01:43;21.00;73.60
12166;DHT22;6146;48.128;11.476;2022-10-17T16:04:12;20.90;75.50
12166;DHT22;6146;48.128;11.476;2022-10-17T16:06:40;20.70;77.30
12166;DHT22;6146;48.128;11.476;2022-10-17T16:09:07;20.50;79.20
12166;DHT22;6146;48.128;11.476;2022-10-17T16:11:38;20.30;80.10
12166;DHT22;6146;48.128;11.476;2022-10-17T16:14:06;20.20;82.60
12166;DHT22;6146;48.128;11.476;2022-10-17T16:16:32;20.00;83.80
12166;DHT22;6146;48.128;11.476;2022-10-17T16:18:58;19.80;84.90
12166;DHT22;6146;48.128;11.476;2022-10-17T16:21:29;19.70;86.40
12166;DHT22;6146;48.128;11.476;2022-10-17T16:23:56;19.50;88.60
12166;DHT22;6146;48.128;11.476;2022-10-17T16:26:22;19.40;90.00
12166;DHT22;6146;48.128;11.476;2022-10-17T16:28:47;19.20;90.70
12166;DHT22;6146;48.128;11.476;2022-10-17T16:31:22;19.10;91.40
12166;DHT22;6146;48.128;11.476;2022-10-17T16:33:50;19.00;92.00
12166;DHT22;6146;48.128;11.476;2022-10-17T16:36:16;18.90;92.90
12166;DHT22;6146;48.128;11.476;2022-10-17T16:38:42;18.80;94.40
12166;DHT22;6146;48.128;11.476;2022-10-17T16:41:32;18.70;95.70
12166;DHT22;6146;48.128;11.476;2022-10-17T16:44:00;18.50;97.50
12166;DHT22;6146;48.128;11.476;2022-10-17T16:46:27;18.40;98.60
12166;DHT22;6146;48.128;11.476;2022-10-17T16:48:53;18.30;99.60
12166;DHT22;6146;48.128;11.476;2022-10-17T16:51:19;18.20;99.90
12166;DHT22;6146;48.128;11.476;2022-10-17T16:53:46;18.10;99.90
12166;DHT22;6146;48.128;11.476;2022-10-17T16:56:18;18.00;99.90
12166;DHT22;6146;48.128;11.476;2022-10-17T16:58:44;17.80;99.90
12166;DHT22;6146;48.128;11.476;2022-10-17T17:01:12;17.80;99.90
12166;DHT22;6146;48.128;11.476;2022-10-17T17:03:40;17.70;99.90
12166;DHT22;6146;48.128;11.476;2022-10-17T17:06:07;17.60;99.90
12166;DHT22;6146;48.128;11.476;2022-10-17T17:08:34;17.50;99.90
12166;DHT22;6146;48.128;11.476;2022-10-17T17:11:02;17.50;99.90
12166;DHT22;6146;48.128;11.476;2022-10-17T17:13:27;17.30;99.90
12166;DHT22;6146;48.128;11.476;2022-10-17T17:16:04;17.20;99.90
12166;DHT22;6146;48.128;11.476;2022-10-17T17:18:30;17.10;99.90
12166;DHT22;6146;48.128;11.476;2022-10-17T17:21:00;17.10;99.90
12166;DHT22;6146;48.128;11.476;2022-10-17T17:23:26;17.00;99.90
12166;DHT22;6146;48.128;11.476;2022-10-17T17:26:03;16.90;99.90
12166;DHT22;6146;48.128;11.476;2022-10-17T17:28:30;16.80;99.90
12166;DHT22;6146;48.128;11.476;2022-10-17T17:30:56;16.70;99.90
12166;DHT22;6146;48.128;11.476;2022-10-17T17:33:22;16.60;99.90
12166;DHT22;6146;48.128;11.476;2022-10-17T17:35:59;16.50;99.90